Tucson, AZ (85737)

4:01 AM MST on January 21, 2017 (GMT -0700)
Oro Valley Town Hall | | Change Station
Active Advisory: Areal Flood Advisory

Elev 2717 ft 32.41 °N, 111.00 °W | Updated 183 days ago

Rain
Rain
77.6 °F
Feels Like 79 °F
N
2.8
Wind Variable Wind from NW
Gusts 3.5 mph

Today
High -- | Low -- °F
--% Chance of Precip.
Yesterday
High -- | Low -- °F
Precip. -- in
Pressure 29.57 in
Visibility 10.0 miles
Clouds Few 7000 ft
Scattered Clouds 10000 ft
Heat Index 79 °F
Dew Point 64 °F
Humidity 61%
Rainfall 0.76 in
Snow Depth Not available.
7:23 AM 5:47 PM
Waning Crescent, 36% visible
METAR KDMA 211058Z AUTO 27010KT 10SM FEW070 SCT100 09/05 A2962 RMK AO2 SLP013 T00860049 CHINO RWY30 $
Pressure 29.57 in
Visibility 10.0 miles
Clouds Few 7000 ft
Scattered Clouds 10000 ft
Heat Index 79 °F
Dew Point 64 °F
Humidity 61%
Rainfall 0.76 in
Snow Depth Not available.
7:23 AM 5:47 PM
Waning Crescent, 36% visible
METAR KDMA 211058Z AUTO 27010KT 10SM FEW070 SCT100 09/05 A2962 RMK AO2 SLP013 T00860049 CHINO RWY30 $

Get Your Daily Forecast Email!

Thanks for signing up!

Be on the lookout for a verification email in your inbox.

You'll start receiving the daily forecast at 8 AM.

×

10-Day Weather Forecast

Almanac

Astronomy

Jan. 21, 2017 Rise Set
Actual Time
Civil Twilight
Nautical Twilight
Astronomical Twilight
Moon
Length of Visible Light
Length of Day
Tomorrow will be .
, % of the Moon is Illuminated

Today's Extremes

State Highs State Lows

Community

WunderPhotos

Upload Photos

1,962,540 photos uploaded!

WunderBlog® & News

Nearby

Air Quality

  Air Quality AQ Index Pollutant
Not available.

Snow Depth

Station Depth Elevation

Earthquake Activity

City Distance Mag. Time & Date
Minimum magnitude displayed is 2.5.

Coastal Water Temperatures

Place Temperature

Stations

Nearby Weather Stations

Station Location Temp. Windchill Dew Point Humidity Wind Precip. Elev Updated Type
                   

Watches & Warnings

Areal Flood Advisory
Issued: 3:30 AM MST Jan. 21, 2017 – National Weather Service

The National Weather Service in Tucson has issued a

* small stream Flood Advisory for...
eastern Pima County in southeastern Arizona...

* until 915 am MST

* at 321 am MST... gauge reports from Sabino creek near Sabino dam
indicate flow at 3.8 feet or approximately 1900 cubic feet per
second. This flow has the potential to impact access to Sabino
Canyon Recreation Area and adjoining areas along Sabino creek. The
flow is expected to gradually decrease along Sabino creek as the
morning progresses.

* Some locations that will experience flooding include...
Tanque Verde... Seven Falls... Sabino Canyon and Catalina Foothills.

Lat... Lon 3234 11074 3225 11078 3227 11086 3235 11085


Gl